Time;durP1;ratioP1;P1;durP2;ratioP2;P2;SDS_P1;SDS_P2;PMS_P1;PMS_P2;Temp;Humidity;BMP_temperature;BMP_pressure;BME280_temperature;BME280_humidity;BME280_pressure;Samples;Min_cycle;Max_cycle;Signal;HPM_P1;HPM_P2
2021/07/31 00:00:40;;;;;;;0.40;0.40;;;18.30;99.90;;;;;;4948347;28;20189;-77
2021/07/31 00:03:06;;;;;;;1.52;0.65;;;18.30;99.90;;;;;;4948059;29;20640;-76
2021/07/31 00:05:31;;;;;;;1.10;1.00;;;18.20;99.90;;;;;;4949513;29;20244;-77
2021/07/31 00:07:57;;;;;;;0.68;0.60;;;18.20;99.90;;;;;;4947981;28;20178;-78
2021/07/31 00:10:22;;;;;;;0.60;0.60;;;18.20;99.90;;;;;;4948167;28;20196;-77
2021/07/31 00:12:48;;;;;;;0.57;0.57;;;18.10;99.90;;;;;;4949404;29;20201;-78
2021/07/31 00:15:14;;;;;;;1.95;0.70;;;18.20;99.90;;;;;;4947560;28;20174;-77
2021/07/31 00:17:39;;;;;;;0.85;0.73;;;18.10;99.90;;;;;;4949673;29;20747;-77
2021/07/31 00:20:05;;;;;;;0.85;0.73;;;18.10;99.90;;;;;;4950009;28;20189;-77
2021/07/31 00:22:31;;;;;;;1.65;1.10;;;18.20;99.90;;;;;;4949841;29;20190;-76
2021/07/31 00:24:56;;;;;;;0.82;0.80;;;18.20;99.90;;;;;;4949514;28;20676;-75
2021/07/31 00:27:22;;;;;;;1.95;0.50;;;18.20;99.90;;;;;;4947677;29;20312;-78
2021/07/31 00:29:47;;;;;;;0.60;0.60;;;18.10;99.90;;;;;;4949020;29;20221;-76
2021/07/31 00:32:14;;;;;;;2.83;1.13;;;18.20;99.90;;;;;;4949351;29;20181;-78
2021/07/31 00:34:39;;;;;;;0.60;0.60;;;18.30;99.90;;;;;;4947663;29;20213;-77
2021/07/31 00:37:05;;;;;;;0.60;0.60;;;18.30;99.90;;;;;;4949116;28;20637;-78
2021/07/31 00:39:38;;;;;;;0.95;0.63;;;18.40;99.90;;;;;;4947738;29;20261;-77
2021/07/31 00:42:04;;;;;;;1.05;0.60;;;18.50;99.90;;;;;;4949492;28;20165;-78
2021/07/31 00:44:30;;;;;;;0.90;0.52;;;18.50;99.90;;;;;;4950292;28;20276;-77
2021/07/31 00:46:55;;;;;;;0.77;0.75;;;18.40;99.90;;;;;;4951582;28;20269;-78
2021/07/31 00:49:21;;;;;;;0.60;0.60;;;18.40;99.90;;;;;;4950770;29;20185;-79
2021/07/31 00:51:47;;;;;;;0.68;0.60;;;18.30;99.90;;;;;;4948954;29;20185;-77
2021/07/31 00:54:12;;;;;;;0.70;0.70;;;18.30;99.90;;;;;;4950078;28;20189;-78
2021/07/31 00:56:39;;;;;;;1.25;0.80;;;18.20;99.90;;;;;;4950396;29;20264;-79
2021/07/31 00:59:05;;;;;;;0.68;0.60;;;18.10;99.90;;;;;;4950448;29;20280;-78
2021/07/31 01:01:31;;;;;;;7.55;0.70;;;18.10;99.90;;;;;;4951489;28;20217;-78
2021/07/31 01:03:56;;;;;;;0.70;0.70;;;18.10;99.90;;;;;;4949447;28;20259;-78
2021/07/31 01:06:22;;;;;;;1.35;0.82;;;18.00;99.90;;;;;;4948758;28;20240;-76
2021/07/31 01:08:48;;;;;;;1.38;0.73;;;18.00;99.90;;;;;;4948495;28;20213;-77
2021/07/31 01:11:13;;;;;;;0.90;0.80;;;18.00;99.90;;;;;;4946774;29;20283;-78
2021/07/31 01:13:40;;;;;;;2.05;1.08;;;17.90;99.90;;;;;;4947777;28;20241;-77
2021/07/31 01:16:10;;;;;;;1.95;0.90;;;18.00;99.90;;;;;;4945942;29;20233;-76
2021/07/31 01:18:36;;;;;;;0.80;0.80;;;18.00;99.90;;;;;;4949182;29;20181;-79
2021/07/31 01:21:02;;;;;;;0.85;0.70;;;18.00;99.90;;;;;;4948857;29;20284;-77
2021/07/31 01:23:28;;;;;;;0.93;0.60;;;18.00;99.90;;;;;;4948770;29;20499;-78
2021/07/31 01:25:54;;;;;;;0.60;0.60;;;18.10;99.90;;;;;;4949426;28;20216;-76
2021/07/31 01:28:20;;;;;;;1.25;0.98;;;18.20;99.90;;;;;;4947271;28;20185;-78
2021/07/31 01:30:46;;;;;;;0.63;0.57;;;18.30;99.90;;;;;;4948561;28;20181;-78
2021/07/31 01:33:11;;;;;;;0.80;0.80;;;18.30;99.90;;;;;;4949397;29;20188;-77
2021/07/31 01:35:38;;;;;;;1.08;0.70;;;18.20;99.90;;;;;;4962869;28;20764;-78
2021/07/31 01:38:04;;;;;;;1.15;0.88;;;18.00;99.90;;;;;;4949543;29;20268;-76
2021/07/31 01:40:30;;;;;;;0.70;0.70;;;18.00;99.90;;;;;;4949628;28;20205;-78
2021/07/31 01:42:56;;;;;;;1.85;0.63;;;17.90;99.90;;;;;;4948720;28;20177;-76
2021/07/31 01:45:26;;;;;;;0.60;0.60;;;17.80;99.90;;;;;;4949196;28;20709;-77
2021/07/31 01:47:52;;;;;;;0.98;0.93;;;17.80;99.90;;;;;;4949302;29;20332;-79
2021/07/31 01:50:18;;;;;;;1.20;0.70;;;17.80;99.90;;;;;;4949551;29;20269;-79
2021/07/31 01:52:46;;;;;;;1.23;0.90;;;17.80;99.90;;;;;;4949914;28;20560;-80
2021/07/31 01:55:12;;;;;;;0.60;0.60;;;17.70;99.90;;;;;;4949927;29;20544;-79
2021/07/31 01:57:38;;;;;;;1.42;1.00;;;17.80;99.90;;;;;;4948495;28;20205;-79
2021/07/31 02:00:05;;;;;;;0.50;0.50;;;17.80;99.90;;;;;;4949233;28;20214;-80
2021/07/31 02:02:31;;;;;;;0.80;0.73;;;17.80;99.90;;;;;;4948481;28;20181;-77
2021/07/31 02:04:57;;;;;;;1.30;0.70;;;17.80;99.90;;;;;;4950136;28;20178;-79
2021/07/31 02:07:22;;;;;;;0.52;0.52;;;17.80;99.90;;;;;;4949095;28;20826;-78
2021/07/31 02:09:48;;;;;;;0.50;0.50;;;17.80;99.90;;;;;;4948856;29;20189;-76
2021/07/31 02:12:14;;;;;;;1.10;0.65;;;17.80;99.90;;;;;;4950418;29;20199;-80
2021/07/31 02:14:40;;;;;;;0.52;0.52;;;17.70;99.90;;;;;;4949931;28;20292;-76
2021/07/31 02:17:05;;;;;;;0.98;0.50;;;17.70;99.90;;;;;;4944102;28;20220;-79
2021/07/31 02:19:31;;;;;;;1.02;0.80;;;17.60;99.90;;;;;;4947148;28;20174;-78
2021/07/31 02:21:58;;;;;;;0.85;0.73;;;17.60;99.90;;;;;;4949790;29;20289;-79
2021/07/31 02:24:24;;;;;;;1.10;0.60;;;17.50;99.90;;;;;;4949035;29;20185;-78
2021/07/31 02:26:50;;;;;;;0.77;0.50;;;17.50;99.90;;;;;;4947088;28;20219;-76
2021/07/31 02:29:16;;;;;;;0.57;0.57;;;17.50;99.90;;;;;;4949586;28;20197;-80
2021/07/31 02:31:42;;;;;;;0.95;0.60;;;17.50;99.90;;;;;;4949253;29;20197;-79
2021/07/31 02:34:07;;;;;;;0.50;0.45;;;17.50;99.90;;;;;;4938229;28;20211;-77
2021/07/31 02:36:33;;;;;;;0.60;0.60;;;17.40;99.90;;;;;;4948996;28;20268;-76
2021/07/31 02:38:58;;;;;;;1.08;0.50;;;17.40;99.90;;;;;;4949084;28;20193;-78
2021/07/31 02:41:24;;;;;;;0.82;0.68;;;17.40;99.90;;;;;;4951290;29;20190;-79
2021/07/31 02:43:50;;;;;;;0.50;0.50;;;17.30;99.90;;;;;;4950583;28;20582;-79
2021/07/31 02:46:16;;;;;;;0.70;0.60;;;17.30;99.90;;;;;;4952957;28;20276;-77
2021/07/31 02:48:42;;;;;;;1.08;0.75;;;17.30;99.90;;;;;;4952752;28;20206;-78
2021/07/31 02:51:12;;;;;;;0.85;0.60;;;17.30;99.90;;;;;;4951767;29;20185;-79
2021/07/31 02:53:38;;;;;;;0.88;0.60;;;17.20;99.90;;;;;;4953113;29;20182;-80
2021/07/31 02:56:04;;;;;;;0.55;0.50;;;17.20;99.90;;;;;;4952096;28;20220;-79
2021/07/31 02:58:30;;;;;;;0.90;0.65;;;17.20;99.90;;;;;;4951571;28;20791;-76
2021/07/31 03:00:56;;;;;;;0.90;0.60;;;17.10;99.90;;;;;;4951170;29;20613;-78
2021/07/31 03:03:21;;;;;;;0.88;0.70;;;17.10;99.90;;;;;;4952505;29;20298;-80
2021/07/31 03:05:58;;;;;;;2.35;0.50;;;17.00;99.90;;;;;;4952820;28;20209;-77
2021/07/31 03:08:25;;;;;;;1.30;0.73;;;17.00;99.90;;;;;;4952141;29;20185;-77
2021/07/31 03:11:02;;;;;;;1.23;0.60;;;17.00;99.90;;;;;;4953103;29;20185;-78
2021/07/31 03:13:28;;;;;;;0.50;0.50;;;17.00;99.90;;;;;;4952643;28;20205;-80
2021/07/31 03:15:54;;;;;;;1.48;0.63;;;17.00;99.90;;;;;;4952070;28;20364;-78
2021/07/31 03:18:20;;;;;;;0.93;0.85;;;17.00;99.90;;;;;;4950698;29;20193;-78
2021/07/31 03:20:48;;;;;;;1.30;0.60;;;16.90;99.90;;;;;;4951040;28;20178;-77
2021/07/31 03:23:15;;;;;;;0.77;0.68;;;16.90;99.90;;;;;;4951396;29;20174;-79
2021/07/31 03:25:41;;;;;;;2.58;0.60;;;16.80;99.90;;;;;;4951857;28;20628;-78
2021/07/31 03:28:07;;;;;;;0.50;0.43;;;16.90;99.90;;;;;;4949773;29;20201;-79
2021/07/31 03:30:33;;;;;;;0.40;0.40;;;16.90;99.90;;;;;;4965494;28;20664;-78
2021/07/31 03:32:58;;;;;;;0.65;0.63;;;16.90;99.90;;;;;;4951092;29;20189;-76
2021/07/31 03:35:24;;;;;;;0.45;0.40;;;16.80;99.90;;;;;;4951738;28;20256;-76
2021/07/31 03:37:50;;;;;;;0.43;0.43;;;16.80;99.90;;;;;;4952005;28;20846;-80
2021/07/31 03:40:15;;;;;;;0.82;0.40;;;16.80;99.90;;;;;;4951849;28;20233;-78
2021/07/31 03:42:41;;;;;;;1.30;0.57;;;16.80;99.90;;;;;;4949841;29;20205;-77
2021/07/31 03:45:07;;;;;;;1.08;0.60;;;16.80;99.90;;;;;;4950079;28;20182;-77
2021/07/31 03:47:33;;;;;;;0.88;0.47;;;16.80;99.90;;;;;;4949884;28;20644;-77
2021/07/31 03:49:59;;;;;;;0.40;0.40;;;16.70;99.90;;;;;;4948358;28;20189;-76
2021/07/31 03:52:27;;;;;;;0.60;0.43;;;16.70;99.90;;;;;;4949495;29;20204;-76
2021/07/31 03:54:52;;;;;;;1.05;0.40;;;16.70;99.90;;;;;;4947786;29;20558;-76
2021/07/31 03:57:18;;;;;;;0.98;0.55;;;16.70;99.90;;;;;;4949035;28;20417;-76
2021/07/31 03:59:43;;;;;;;0.47;0.40;;;16.70;99.90;;;;;;4947872;29;20648;-77
2021/07/31 04:02:09;;;;;;;0.80;0.60;;;16.70;99.90;;;;;;4949214;29;20174;-76
2021/07/31 04:04:35;;;;;;;1.38;0.77;;;16.70;99.90;;;;;;4948899;28;20655;-77
2021/07/31 04:07:00;;;;;;;0.77;0.60;;;16.60;99.90;;;;;;4947689;29;20731;-77
2021/07/31 04:09:26;;;;;;;1.83;0.80;;;16.70;99.90;;;;;;4949132;28;20273;-77
2021/07/31 04:11:51;;;;;;;0.52;0.47;;;16.60;99.90;;;;;;4947469;29;20201;-77
2021/07/31 04:14:17;;;;;;;3.38;0.85;;;16.60;99.90;;;;;;4948620;28;20252;-78
2021/07/31 04:16:43;;;;;;;1.08;0.50;;;16.70;99.90;;;;;;4948517;28;20220;-78
2021/07/31 04:19:08;;;;;;;0.93;0.60;;;16.70;99.90;;;;;;4948775;28;20192;-78
2021/07/31 04:21:34;;;;;;;1.63;0.40;;;16.70;99.90;;;;;;4949760;28;20668;-78
2021/07/31 04:23:59;;;;;;;0.60;0.50;;;16.80;99.90;;;;;;4948068;28;20548;-79
2021/07/31 04:26:25;;;;;;;1.48;1.00;;;16.80;99.90;;;;;;4949387;29;20610;-78
2021/07/31 04:28:50;;;;;;;1.80;0.50;;;16.90;99.90;;;;;;4950200;28;20186;-77
2021/07/31 04:31:16;;;;;;;0.43;0.43;;;16.90;99.90;;;;;;4948704;29;20652;-79
2021/07/31 04:33:43;;;;;;;0.32;0.32;;;16.90;99.90;;;;;;4948288;29;20197;-77
2021/07/31 04:36:09;;;;;;;0.60;0.60;;;16.90;99.90;;;;;;4949147;28;20228;-77
2021/07/31 04:38:36;;;;;;;1.55;0.30;;;16.90;99.90;;;;;;4948904;29;20578;-77
2021/07/31 04:41:03;;;;;;;0.57;0.40;;;16.90;99.90;;;;;;4950936;28;21209;-77
2021/07/31 04:43:29;;;;;;;1.48;0.50;;;17.00;99.90;;;;;;4948546;29;20276;-79
2021/07/31 04:45:55;;;;;;;0.35;0.30;;;17.00;99.90;;;;;;4937798;29;20297;-78
2021/07/31 04:48:20;;;;;;;0.40;0.40;;;17.20;99.90;;;;;;4948741;29;20213;-77
2021/07/31 04:50:46;;;;;;;0.30;0.30;;;17.90;99.90;;;;;;4949617;29;20776;-77
2021/07/31 04:53:11;;;;;;;1.00;0.45;;;18.10;99.90;;;;;;4949571;28;20660;-77
2021/07/31 04:55:37;;;;;;;1.38;0.57;;;18.30;99.90;;;;;;4949328;29;20292;-79
2021/07/31 04:58:02;;;;;;;2.80;0.70;;;18.60;99.90;;;;;;4948499;29;20250;-78
2021/07/31 05:00:28;;;;;;;0.40;0.30;;;19.40;99.90;;;;;;4949423;28;20193;-78
2021/07/31 05:02:53;;;;;;;0.43;0.38;;;20.10;99.90;;;;;;4947918;28;20205;-76
2021/07/31 05:05:19;;;;;;;1.85;0.65;;;20.90;99.90;;;;;;4949238;28;20223;-77
2021/07/31 05:07:45;;;;;;;0.95;0.43;;;21.40;99.90;;;;;;4948762;28;20198;-77
2021/07/31 05:10:11;;;;;;;0.40;0.40;;;22.10;99.90;;;;;;4947016;28;20186;-79
2021/07/31 05:12:36;;;;;;;0.73;0.30;;;22.50;99.90;;;;;;4947340;29;20590;-78
2021/07/31 05:15:02;;;;;;;1.13;0.55;;;22.70;99.90;;;;;;4948753;28;20182;-78
2021/07/31 05:17:28;;;;;;;0.60;0.40;;;22.30;99.90;;;;;;4947348;29;21238;-78
2021/07/31 05:19:53;;;;;;;1.02;0.65;;;21.80;99.90;;;;;;4949231;28;20735;-77
2021/07/31 05:22:19;;;;;;;0.40;0.40;;;21.10;99.90;;;;;;4948976;28;20815;-78
2021/07/31 05:24:44;;;;;;;0.40;0.40;;;20.40;99.90;;;;;;4946789;29;20178;-79
2021/07/31 05:27:10;;;;;;;0.73;0.38;;;20.00;99.90;;;;;;4947357;29;20285;-76
2021/07/31 05:29:36;;;;;;;0.47;0.43;;;19.60;99.90;;;;;;4949255;29;20200;-76
2021/07/31 05:32:02;;;;;;;0.93;0.32;;;19.60;99.90;;;;;;4946864;28;20664;-77
2021/07/31 05:34:28;;;;;;;0.45;0.45;;;20.10;99.90;;;;;;4948064;28;20189;-77
2021/07/31 05:36:53;;;;;;;0.30;0.30;;;20.50;99.90;;;;;;4948706;28;20221;-78
2021/07/31 05:39:19;;;;;;;1.27;0.40;;;20.70;99.90;;;;;;4948936;29;20236;-79
2021/07/31 05:41:44;;;;;;;0.45;0.40;;;21.10;99.90;;;;;;4949254;28;20182;-79
2021/07/31 05:44:10;;;;;;;1.27;0.75;;;21.90;99.90;;;;;;4945870;28;20205;-77
2021/07/31 05:46:35;;;;;;;0.20;0.20;;;22.70;99.90;;;;;;4948604;28;20588;-79
2021/07/31 05:49:01;;;;;;;1.80;0.40;;;23.40;99.90;;;;;;4948503;29;20213;-77
2021/07/31 05:51:27;;;;;;;0.98;0.35;;;23.70;99.90;;;;;;4948667;28;20672;-77
2021/07/31 05:53:52;;;;;;;0.52;0.40;;;23.90;99.90;;;;;;4946611;29;20189;-79
2021/07/31 05:56:18;;;;;;;1.48;0.63;;;24.20;99.90;;;;;;4946318;28;20730;-76
2021/07/31 05:58:43;;;;;;;0.40;0.40;;;24.50;99.90;;;;;;4947764;28;20264;-79
2021/07/31 06:01:10;;;;;;;0.30;0.30;;;24.70;99.90;;;;;;4948627;28;20679;-78
2021/07/31 06:03:36;;;;;;;0.40;0.40;;;24.50;99.90;;;;;;4946085;29;20302;-77
2021/07/31 06:06:02;;;;;;;0.40;0.40;;;24.70;99.90;;;;;;4948413;28;20212;-78
2021/07/31 06:08:28;;;;;;;0.40;0.40;;;24.70;99.70;;;;;;4946403;29;20212;-78
2021/07/31 06:11:01;;;;;;;1.60;0.70;;;24.80;99.20;;;;;;4947625;28;20664;-78
2021/07/31 06:13:26;;;;;;;0.47;0.47;;;24.90;98.80;;;;;;4947875;28;20209;-80
2021/07/31 06:15:52;;;;;;;0.30;0.30;;;24.80;98.50;;;;;;4954297;28;20714;-78
2021/07/31 06:18:18;;;;;;;0.60;0.40;;;25.10;98.40;;;;;;4954676;28;20690;-80
2021/07/31 06:20:43;;;;;;;0.77;0.57;;;25.00;98.60;;;;;;4952460;29;20290;-77
2021/07/31 06:23:09;;;;;;;0.52;0.40;;;25.40;97.40;;;;;;4952476;29;20255;-78
2021/07/31 06:25:34;;;;;;;0.30;0.20;;;25.50;96.20;;;;;;4953126;29;20217;-78
2021/07/31 06:28:00;;;;;;;0.30;0.30;;;25.70;96.50;;;;;;4951846;28;20185;-78
2021/07/31 06:30:25;;;;;;;1.25;0.45;;;25.80;95.50;;;;;;4951167;28;20192;-77
2021/07/31 06:32:51;;;;;;;0.82;0.43;;;25.90;95.20;;;;;;4951412;28;20181;-78
2021/07/31 06:35:16;;;;;;;0.40;0.40;;;25.60;95.10;;;;;;4951029;28;20185;-78
2021/07/31 06:37:42;;;;;;;0.73;0.40;;;25.60;95.20;;;;;;4949438;28;20299;-79
2021/07/31 06:40:09;;;;;;;0.30;0.30;;;25.40;94.60;;;;;;4953514;29;20652;-77
2021/07/31 06:42:35;;;;;;;1.38;0.65;;;25.40;94.70;;;;;;4952893;28;20204;-76
2021/07/31 06:45:00;;;;;;;0.50;0.40;;;24.90;95.20;;;;;;4952519;28;20181;-76
2021/07/31 06:47:26;;;;;;;0.30;0.30;;;24.20;96.70;;;;;;4951524;28;20300;-76
2021/07/31 06:49:52;;;;;;;2.53;0.68;;;23.70;97.40;;;;;;4941290;29;20224;-77
2021/07/31 06:52:17;;;;;;;0.80;0.32;;;23.10;98.70;;;;;;4949062;29;20193;-78
2021/07/31 06:54:43;;;;;;;0.50;0.50;;;22.80;99.30;;;;;;4948799;28;20193;-77
2021/07/31 06:57:09;;;;;;;1.75;0.40;;;22.50;99.90;;;;;;4950740;28;20686;-76
2021/07/31 06:59:35;;;;;;;1.45;0.75;;;22.30;99.90;;;;;;4945970;28;20178;-78
2021/07/31 07:02:01;;;;;;;1.40;0.75;;;22.10;99.90;;;;;;4950332;28;20196;-77
2021/07/31 07:04:26;;;;;;;1.20;0.60;;;22.30;99.90;;;;;;4949919;28;20644;-77
2021/07/31 07:06:52;;;;;;;0.50;0.50;;;22.30;99.90;;;;;;4949713;28;20439;-76
2021/07/31 07:09:17;;;;;;;3.22;0.40;;;22.40;99.90;;;;;;4949950;28;20241;-77
2021/07/31 07:11:43;;;;;;;2.00;0.47;;;22.60;99.90;;;;;;4949354;28;20189;-77
2021/07/31 07:14:09;;;;;;;0.52;0.30;;;22.80;99.90;;;;;;4949535;28;20682;-76
2021/07/31 07:16:35;;;;;;;0.50;0.40;;;22.70;99.90;;;;;;4949909;28;20222;-76
2021/07/31 07:19:01;;;;;;;0.50;0.50;;;22.50;99.90;;;;;;4954129;29;20249;-76
2021/07/31 07:21:26;;;;;;;1.10;0.55;;;22.40;99.90;;;;;;4951201;28;20192;-76
2021/07/31 07:23:53;;;;;;;1.50;0.50;;;22.40;99.90;;;;;;4941200;28;20300;-76
2021/07/31 07:26:19;;;;;;;1.77;0.65;;;22.20;99.90;;;;;;4946847;28;20662;-76
2021/07/31 07:28:45;;;;;;;0.70;0.30;;;21.90;99.90;;;;;;4946481;28;20450;-77
2021/07/31 07:31:12;;;;;;;0.45;0.45;;;21.70;99.90;;;;;;4945658;29;20185;-76
2021/07/31 07:33:38;;;;;;;0.65;0.30;;;21.60;99.90;;;;;;4946581;28;20185;-77
2021/07/31 07:36:18;;;;;;;2.08;0.40;;;21.50;99.90;;;;;;4946649;28;20227;-76
2021/07/31 07:38:46;;;;;;;1.60;0.32;;;21.40;99.90;;;;;;4946581;29;20220;-76
2021/07/31 07:41:13;;;;;;;0.90;0.35;;;21.20;99.90;;;;;;4947200;28;20622;-76
2021/07/31 07:43:39;;;;;;;0.40;0.40;;;21.00;99.90;;;;;;4946432;28;20186;-77
2021/07/31 07:46:05;;;;;;;1.58;0.50;;;20.80;99.90;;;;;;4946417;28;20264;-77
2021/07/31 07:48:32;;;;;;;0.63;0.40;;;20.80;99.90;;;;;;4946852;28;20182;-77
2021/07/31 07:50:58;;;;;;;1.83;0.30;;;20.80;99.90;;;;;;4940012;29;20173;-77
2021/07/31 07:53:24;;;;;;;0.40;0.40;;;20.80;99.90;;;;;;4943196;29;20185;-77
2021/07/31 07:55:49;;;;;;;0.80;0.30;;;20.50;99.90;;;;;;4946388;28;20571;-77
2021/07/31 07:58:15;;;;;;;1.00;0.40;;;20.50;99.90;;;;;;4944856;28;20186;-75
2021/07/31 08:00:43;;;;;;;0.40;0.30;;;20.40;99.90;;;;;;4946467;28;20200;-76
2021/07/31 08:03:10;;;;;;;0.98;0.47;;;20.70;99.90;;;;;;4947592;28;20293;-75
2021/07/31 08:05:39;;;;;;;1.73;0.60;;;20.90;99.90;;;;;;4944634;29;20475;-75
2021/07/31 08:08:06;;;;;;;0.50;0.50;;;21.10;99.90;;;;;;4943987;28;20205;-76
2021/07/31 08:10:32;;;;;;;1.80;0.77;;;21.40;99.90;;;;;;4946516;29;20190;-76
2021/07/31 08:12:58;;;;;;;1.98;0.40;;;21.60;99.90;;;;;;4946697;28;20280;-76
2021/07/31 08:15:24;;;;;;;0.43;0.40;;;22.00;99.90;;;;;;4947155;28;20213;-76
2021/07/31 08:17:50;;;;;;;0.40;0.40;;;22.30;99.90;;;;;;4945124;29;20228;-76
2021/07/31 08:20:16;;;;;;;0.70;0.40;;;22.60;99.90;;;;;;4942921;29;20201;-76
2021/07/31 08:22:41;;;;;;;1.42;0.70;;;22.90;99.90;;;;;;4946578;28;20561;-76
2021/07/31 08:25:08;;;;;;;0.50;0.50;;;23.30;99.90;;;;;;4946170;29;20264;-76
2021/07/31 08:27:34;;;;;;;0.80;0.70;;;23.70;99.90;;;;;;4944913;29;20659;-77
2021/07/31 08:30:00;;;;;;;0.60;0.60;;;23.70;99.90;;;;;;4945092;29;20240;-76
2021/07/31 08:32:25;;;;;;;2.55;1.45;;;23.20;99.90;;;;;;4946077;28;20205;-77
2021/07/31 08:34:51;;;;;;;0.60;0.50;;;22.90;99.90;;;;;;4945327;29;20185;-76
2021/07/31 08:37:17;;;;;;;1.10;0.85;;;22.40;99.90;;;;;;4948575;28;20213;-76
2021/07/31 08:39:44;;;;;;;0.30;0.30;;;22.10;99.90;;;;;;4946624;29;20568;-76
2021/07/31 08:42:13;;;;;;;2.58;0.45;;;21.80;99.90;;;;;;4947883;29;20664;-76
2021/07/31 08:44:40;;;;;;;1.10;0.50;;;21.70;99.90;;;;;;4947551;28;20234;-76
2021/07/31 08:47:08;;;;;;;0.50;0.50;;;21.70;99.90;;;;;;4943687;29;20205;-77
2021/07/31 08:49:37;;;;;;;0.70;0.60;;;21.60;99.90;;;;;;4947039;29;20194;-77
2021/07/31 08:52:04;;;;;;;0.60;0.50;;;21.50;99.90;;;;;;4947134;28;20188;-77
2021/07/31 08:54:30;;;;;;;1.27;0.40;;;21.50;99.90;;;;;;4946016;28;20204;-77
2021/07/31 08:56:56;;;;;;;0.63;0.40;;;21.50;99.90;;;;;;4946898;28;20216;-77
2021/07/31 08:59:28;;;;;;;1.30;0.40;;;21.60;99.90;;;;;;4946090;28;20192;-77
2021/07/31 09:01:55;;;;;;;0.60;0.40;;;21.60;99.90;;;;;;4945978;29;20182;-77
2021/07/31 09:04:22;;;;;;;2.30;0.65;;;21.70;99.90;;;;;;4944261;29;20181;-77
2021/07/31 09:06:48;;;;;;;0.57;0.57;;;21.80;99.90;;;;;;4946032;29;20710;-78
2021/07/31 09:09:14;;;;;;;1.65;0.30;;;21.70;99.90;;;;;;4945693;28;20186;-77
2021/07/31 09:11:56;;;;;;;0.70;0.52;;;21.70;99.90;;;;;;4945936;28;20193;-77
2021/07/31 09:14:21;;;;;;;1.45;0.80;;;21.60;99.90;;;;;;4945400;28;20279;-77
2021/07/31 09:16:47;;;;;;;0.77;0.50;;;21.40;99.90;;;;;;4939914;28;20828;-77
2021/07/31 09:19:14;;;;;;;0.45;0.40;;;21.30;99.90;;;;;;4945397;28;20616;-77
2021/07/31 09:21:41;;;;;;;0.55;0.47;;;21.10;99.90;;;;;;4945633;28;20186;-78
2021/07/31 09:24:20;;;;;;;1.20;0.50;;;21.10;99.90;;;;;;4945336;28;20182;-78
2021/07/31 09:26:49;;;;;;;0.40;0.40;;;21.10;99.90;;;;;;4946254;28;20205;-77
2021/07/31 09:29:16;;;;;;;0.47;0.47;;;21.00;99.90;;;;;;4944960;29;20182;-77
2021/07/31 09:31:45;;;;;;;0.28;0.22;;;21.00;99.90;;;;;;4944220;29;20193;-77
2021/07/31 09:34:22;;;;;;;0.70;0.68;;;21.00;99.90;;;;;;4944355;29;20524;-77
2021/07/31 09:36:48;;;;;;;0.40;0.40;;;20.90;99.90;;;;;;4946350;29;20213;-77
2021/07/31 09:39:14;;;;;;;1.35;0.40;;;21.00;99.90;;;;;;4946305;28;20173;-77
2021/07/31 09:41:42;;;;;;;1.02;0.68;;;21.10;99.90;;;;;;4944440;28;20193;-77
2021/07/31 09:44:08;;;;;;;0.35;0.35;;;21.20;99.90;;;;;;4944166;29;20185;-77
2021/07/31 09:46:54;;;;;;;1.30;0.50;;;21.10;99.90;;;;;;4946185;28;20305;-78
2021/07/31 09:49:22;;;;;;;0.57;0.38;;;20.90;99.90;;;;;;4944964;28;20683;-77
2021/07/31 09:51:52;;;;;;;5.88;0.60;;;20.80;99.90;;;;;;4944390;29;20185;-77
2021/07/31 09:54:22;;;;;;;0.95;0.50;;;20.80;99.90;;;;;;4945484;28;20203;-77
2021/07/31 09:56:54;;;;;;;1.33;0.40;;;20.90;99.90;;;;;;4937699;28;20213;-77
2021/07/31 09:59:22;;;;;;;0.50;0.50;;;21.10;99.90;;;;;;4945251;29;20185;-77
2021/07/31 10:01:55;;;;;;;1.00;0.55;;;21.40;99.90;;;;;;4945688;29;20185;-77
2021/07/31 10:04:21;;;;;;;8.95;0.70;;;21.60;99.90;;;;;;4944866;29;20562;-77
2021/07/31 10:06:49;;;;;;;0.32;0.32;;;21.80;99.90;;;;;;4944851;28;20297;-77
2021/07/31 10:09:14;;;;;;;0.30;0.30;;;22.00;99.90;;;;;;4948063;28;20557;-77
2021/07/31 10:11:41;;;;;;;1.33;0.60;;;22.00;99.90;;;;;;4947150;29;20690;-77
2021/07/31 10:14:08;;;;;;;0.45;0.32;;;22.10;99.90;;;;;;4944161;29;20189;-77
2021/07/31 10:16:37;;;;;;;0.60;0.60;;;22.30;99.90;;;;;;4945557;29;20220;-77
2021/07/31 10:19:02;;;;;;;2.05;0.50;;;22.50;99.90;;;;;;4945459;29;20185;-77
2021/07/31 10:21:30;;;;;;;0.63;0.45;;;22.50;99.90;;;;;;4946290;28;20244;-77
2021/07/31 10:24:03;;;;;;;0.50;0.43;;;22.20;99.90;;;;;;4945722;28;20193;-77
2021/07/31 10:26:31;;;;;;;0.60;0.40;;;22.20;99.90;;;;;;4945652;28;20210;-77
2021/07/31 10:29:27;;;;;;;0.63;0.50;;;22.10;99.90;;;;;;4945666;28;20269;-77
2021/07/31 10:31:54;;;;;;;1.00;0.40;;;21.90;99.90;;;;;;4945304;28;20189;-77
2021/07/31 10:34:49;;;;;;;0.45;0.45;;;21.80;99.90;;;;;;4945690;28;20257;-77
2021/07/31 10:37:30;;;;;;;0.60;0.40;;;21.80;99.90;;;;;;4945946;28;20201;-77
2021/07/31 10:39:57;;;;;;;1.63;0.60;;;22.10;99.90;;;;;;4945022;29;20182;-77
2021/07/31 10:42:23;;;;;;;2.85;0.50;;;22.30;99.90;;;;;;4945434;28;20192;-78
2021/07/31 10:45:10;;;;;;;0.75;0.60;;;22.50;99.90;;;;;;4945234;28;21055;-77
2021/07/31 10:47:35;;;;;;;0.40;0.40;;;22.70;99.90;;;;;;4945695;29;20185;-77
2021/07/31 10:52:53;;;;;;;0.50;0.50;;;23.10;99.90;;;;;;4944763;28;20194;-77
2021/07/31 10:55:24;;;;;;;1.48;0.45;;;23.00;99.90;;;;;;4944026;29;20252;-77
2021/07/31 10:57:52;;;;;;;1.20;0.65;;;23.10;99.90;;;;;;4945023;29;20213;-77
2021/07/31 11:00:38;;;;;;;0.55;0.55;;;23.10;99.90;;;;;;4947133;28;20185;-77
2021/07/31 11:03:04;;;;;;;0.50;0.50;;;23.20;99.90;;;;;;4948748;29;20182;-77
2021/07/31 11:05:51;;;;;;;0.47;0.40;;;23.20;99.90;;;;;;4950232;28;20205;-77
2021/07/31 11:08:30;;;;;;;0.65;0.60;;;23.00;99.90;;;;;;4948599;29;20185;-77
2021/07/31 11:11:14;;;;;;;1.02;0.50;;;23.20;99.90;;;;;;4945890;29;20252;-77
2021/07/31 11:13:46;;;;;;;0.50;0.43;;;23.30;99.90;;;;;;4948507;28;20296;-77
2021/07/31 11:16:15;;;;;;;1.88;0.68;;;23.20;99.90;;;;;;4948682;28;20213;-77
2021/07/31 11:18:43;;;;;;;0.80;0.80;;;23.30;99.90;;;;;;4946844;29;20222;-77
2021/07/31 11:21:17;;;;;;;0.40;0.40;;;23.30;99.90;;;;;;4950047;28;20232;-77
2021/07/31 11:24:00;;;;;;;0.50;0.40;;;23.50;99.90;;;;;;4947578;28;20845;-77
2021/07/31 11:26:49;;;;;;;0.85;0.60;;;24.00;99.90;;;;;;4947838;28;20566;-77
2021/07/31 11:29:17;;;;;;;1.05;0.68;;;23.80;99.90;;;;;;4946649;29;20557;-79
2021/07/31 11:32:14;;;;;;;0.80;0.50;;;23.60;99.90;;;;;;4946857;28;20558;-77
2021/07/31 11:34:45;;;;;;;0.40;0.40;;;23.50;99.90;;;;;;4947493;29;20379;-77
2021/07/31 11:37:11;;;;;;;0.65;0.65;;;23.20;99.90;;;;;;4949548;29;20205;-77
2021/07/31 11:39:38;;;;;;;1.77;0.90;;;23.00;99.90;;;;;;4948447;28;20186;-77
2021/07/31 11:42:06;;;;;;;1.00;0.70;;;23.20;99.90;;;;;;4949973;28;20277;-77
2021/07/31 11:44:41;;;;;;;0.45;0.45;;;23.40;99.90;;;;;;4946867;29;20252;-77
2021/07/31 11:47:07;;;;;;;2.50;0.70;;;23.50;99.90;;;;;;4946550;29;20228;-77
2021/07/31 11:49:34;;;;;;;2.80;0.52;;;23.90;99.90;;;;;;4946774;28;20200;-77
2021/07/31 11:52:02;;;;;;;0.77;0.50;;;24.30;99.90;;;;;;4946561;28;20185;-78
2021/07/31 11:54:29;;;;;;;0.40;0.40;;;24.60;99.30;;;;;;4947955;28;20205;-77
2021/07/31 11:56:57;;;;;;;1.48;0.50;;;24.40;99.50;;;;;;4945403;28;20256;-77
2021/07/31 11:59:25;;;;;;;0.60;0.60;;;23.80;99.70;;;;;;4948243;29;20218;-77
2021/07/31 12:01:55;;;;;;;2.00;0.68;;;23.20;99.90;;;;;;4948688;29;20193;-77
2021/07/31 12:04:42;;;;;;;0.57;0.50;;;23.10;99.90;;;;;;4946783;28;20181;-76
2021/07/31 12:07:09;;;;;;;0.52;0.50;;;23.10;99.90;;;;;;4946315;29;20215;-76
2021/07/31 12:09:35;;;;;;;1.20;0.80;;;22.90;99.90;;;;;;4944726;28;20193;-76
2021/07/31 12:12:00;;;;;;;2.92;0.50;;;22.80;99.90;;;;;;4946776;28;20289;-78
2021/07/31 12:14:40;;;;;;;0.45;0.45;;;22.80;99.90;;;;;;4951875;28;20205;-78
2021/07/31 12:17:24;;;;;;;1.75;0.50;;;23.50;99.90;;;;;;4949116;28;20244;-78
2021/07/31 12:19:57;;;;;;;0.40;0.40;;;24.00;99.90;;;;;;4947710;29;20185;-78
2021/07/31 12:22:28;;;;;;;0.57;0.40;;;24.10;99.90;;;;;;4948248;29;20559;-77
2021/07/31 12:25:10;;;;;;;0.55;0.55;;;24.40;99.80;;;;;;4947028;29;20186;-78
2021/07/31 12:27:57;;;;;;;0.77;0.52;;;24.20;98.90;;;;;;4947472;28;20193;-77
2021/07/31 12:30:28;;;;;;;1.23;0.50;;;24.10;98.90;;;;;;4946094;29;20655;-77
2021/07/31 12:32:59;;;;;;;0.40;0.40;;;23.90;99.20;;;;;;4946008;29;20201;-79
2021/07/31 12:35:34;;;;;;;0.50;0.50;;;23.90;98.70;;;;;;4945996;28;20214;-77
2021/07/31 12:38:00;;;;;;;0.28;0.28;;;23.80;99.10;;;;;;4947038;28;20208;-78
2021/07/31 12:40:26;;;;;;;0.88;0.50;;;23.60;99.80;;;;;;4946937;28;20192;-77
2021/07/31 12:42:51;;;;;;;0.38;0.38;;;23.70;99.90;;;;;;4946724;28;20182;-78
2021/07/31 12:45:17;;;;;;;0.82;0.43;;;23.80;99.90;;;;;;4946099;28;20568;-77
2021/07/31 12:47:43;;;;;;;0.80;0.40;;;24.20;99.00;;;;;;4947154;28;20221;-77
2021/07/31 12:50:09;;;;;;;1.17;0.40;;;24.40;98.70;;;;;;4946984;29;20537;-77
2021/07/31 12:52:34;;;;;;;2.83;0.63;;;24.30;99.20;;;;;;4947953;28;20204;-77